x

South Santa Rosa Is. Ca (46069) Wave Buoy

12:50 - Wed 27th Aug 2014 All times are PDT. -7 hours from GMT.

  • Sig Wave height 8.5ft
  • Peak Period 14s
  • Average Period 10s
  • Wind
    11mph, 16mph gusts
  • Sea Temp 69°f
  • Luft Temp 66°f
  • Sea Pressure 1017.4mb
  • South Santa Rosa Is. Ca
  • South Santa Rosa Is. Ca

More Historic Weather Station data

Upgrade to MSW Pro to gain access to the past 30 days of data for over 8000 Wavebouys and Weather Stations around the globe.

Join Pro

Comparision Forecast

View Surf forecast
   
Mi 08/27 12:50 8.5ft 14s 10s 11 16 mph 1017.4mb 69f 66f
11:50 9.5ft 14s 10s 13 18 mph 1017.4mb 69f 65f
10:50 9.5ft 14s 11s 11 16 mph 1017.4mb 69f 65f
9:50 10ft 15s 11s 11 16 mph 1017.1mb 69f 65f
8:50 9ft 15s 10s 13 18 mph 1016.6mb 69f 65f
7:50 10ft 14s 11s 13 16 mph 1016.4mb 69f 65f
6:50 10ft 16s 10s 13 16 mph 1016.1mb 69f 65f
5:50 10ft 16s 10s 11 16 mph 1016mb 69f 65f
4:50 9ft 15s 10s 13 16 mph 1015.4mb 69f 65f
3:50 10ft 14s 10s 13 18 mph 1015.1mb 69f 65f
2:50 9.5ft 16s 10s 16 20 mph 1015mb 69f 65f
1:50 10ft 15s 10s 16 20 mph 1015mb 69f 65f
12:50 9ft 15s 10s 16 20 mph 1015.1mb 69f 65f
Di 08/26 11:50 9.5ft 15s 10s 18 22 mph 1014.8mb 69f 65f
10:50 8ft 15s 9s 18 20 mph 1014.7mb 70f 65f
9:50 8ft 15s 9s 16 18 mph 1014.9mb 70f 65f
8:50 7ft 14s 8s 16 20 mph 1014.3mb 70f 65f
7:50 7ft 16s 9s 16 20 mph 1013.8mb 70f 65f
6:50 6ft 16s 9s 16 18 mph 1013.8mb 70f 65f
5:50 6ft 16s 8s 16 18 mph 1013.9mb 70f 66f
4:50 6ft 14s 9s 13 16 mph 1014.1mb 70f 66f
3:50 6ft 15s 9s 13 16 mph 1014.5mb 70f 65f
2:50 6ft 16s 10s 11 16 mph 1015mb 71f 65f
1:50 6ft 13s 9s 11 13 mph 1015.6mb 70f 65f
12:50 6ft 13s 9s 11 13 mph 1015.7mb 70f 65f
11:50 6.5ft 13s 10s 11 13 mph 1015.6mb 70f 65f
10:50 6ft 14s 10s 11 13 mph 1015.7mb 69f 64f
9:50 6ft 13s 10s 9 11 mph 1015.5mb 69f 65f
8:50 6ft 14s 9s 9 11 mph 1015.2mb 69f 65f
7:50 5ft 14s 9s 9 11 mph 1014.8mb 69f 65f
6:50 5ft 14s 9s 9 11 mph 1014.4mb 69f 65f
5:50 5ft 14s 8s 9 11 mph 1014mb 69f 65f
4:50 5ft 14s 8s 11 13 mph 1013.8mb 69f 65f
3:50 5ft 9s 8s 11 13 mph 1013.7mb 69f 65f
2:50 5ft 13s 8s 9 13 mph 1014.1mb 69f 65f
1:50 5ft 14s 8s 9 16 mph 1014.1mb 69f 65f
12:50 4.5ft 15s 8s 11 16 mph 1014.2mb 69f 65f
Mo 08/25 11:50 5ft 14s 8s 11 16 mph 1014mb 69f 66f
10:50 5ft 14s 8s 11 13 mph 1013.6mb 69f 66f
9:50 5ft 13s 8s 11 13 mph 1013.3mb 70f 66f
8:50 5ft 9s 8s 9 11 mph 1012.8mb 70f 66f
7:50 4.5ft 14s 8s 11 13 mph 1012.4mb 70f 66f
6:50 5ft 15s 9s 9 11 mph 1012.5mb 71f 67f
5:50 5ft 12s 9s 7 9 mph 1012.6mb 71f 66f
4:50 5ft 12s 9s 4 7 mph 1012.8mb 71f 66f
3:50 5ft 13s 9s 4 7 mph 1012.8mb 71f 66f
2:50 5ft 13s 9s 4 7 mph 1013.2mb 70f 66f
1:50 5ft 13s 8s 9 11 mph 1013.7mb 70f 66f
12:50 5ft 13s 9s 7 11 mph 1013.8mb 69f 66f
11:50 4.5ft 13s 8s 7 11 mph 1013.8mb 69f 65f
10:50 4.5ft 13s 7s 7 9 mph 1013.4mb 69f 65f
9:50 4.5ft 8s 7s 9 11 mph 1013mb 69f 64f
8:50 4.5ft 9s 7s 9 11 mph 1012.7mb 69f 64f
7:50 5ft 8s 8s 11 13 mph 1012.5mb 69f 64f
6:50 5ft 9s 8s 11 13 mph 1012.1mb 69f 64f
5:50 5ft 9s 7s 9 13 mph 1011.5mb 69f 64f
4:50 5ft 9s 7s 11 13 mph 1011.4mb 69f 64f
3:50 5ft 9s 7s 11 13 mph 1011.4mb 69f 64f
2:50 5ft 9s 7s 11 13 mph 1011.7mb 69f 64f
1:50 5ft 8s 7s 11 16 mph 1011.9mb 69f 65f
12:50 5ft 14s 7s 9 13 mph 1012.3mb 68f 65f
So 08/24 11:50 5ft 9s 7s 11 13 mph 1012.2mb 67f 65f
10:50 5ft 9s 7s 11 13 mph 1011.8mb 67f 65f
9:50 4.5ft 8s 7s 13 16 mph 1011.4mb 67f 65f
8:50 5ft 9s 7s 13 16 mph 1011mb 68f 65f
7:50 5ft 9s 8s 13 18 mph 1010.6mb 68f 65f
6:50 5ft 9s 8s 13
mph
1010.7mb 68f 66f
5:50 5ft 8s 8s 11 13 mph 1010.8mb 69f 66f
4:50 5ft 9s 8s 11 13 mph 1011.1mb 69f 66f
3:50 5.5ft 8s 9s 11 13 mph 1011.4mb 69f 66f
2:50 5ft 9s 8s 9 11 mph 1011.6mb 69f 65f
1:50 5ft 9s 8s 7 9 mph 1012.1mb 69f 65f
12:50 5ft 9s 8s 4 9 mph 1012.7mb 68f 64f
11:50 5.5ft 9s 8s 7 9 mph 1013mb 68f 64f
10:50 5ft 10s 8s 7
mph
1013.2mb 68f 64f
9:50 5ft 10s 8s 7 9 mph 1013.1mb 68f 64f
8:50 5ft 10s 7s 7 11 mph 1013.1mb 68f 64f
7:50 5ft 10s 7s 9 13 mph 1012.8mb 68f 64f
6:50 5ft 10s 7s 11 13 mph 1012.6mb 68f 64f
5:50 5ft 8s 7s 11 13 mph 1012.1mb 68f 64f
4:50 5ft 9s 7s 13 16 mph 1011.9mb 69f 64f
3:50 5ft 10s 7s 13 18 mph 1012mb 69f 64f
2:50 5.5ft 11s 8s 13 16 mph 1012.1mb 69f 64f
1:50 5.5ft 10s 8s 13 16 mph 1012.1mb 69f 65f
12:50 6ft 11s 8s 13 16 mph 1012.2mb 69f 65f
Sa 08/23 11:50 6ft 11s 8s 13 18 mph 1012.1mb 69f 65f
10:50 6ft 11s 8s 13 18 mph 1012.1mb 69f 65f
9:50 6.5ft 10s 8s 13 16 mph 1012.2mb 69f 65f
8:50 6ft 11s 8s 13 16 mph 1011.8mb 69f 65f